MBU6633 LGKR-EDDH
Flight info
| Callsign | MBU6633 |
|---|---|
| Flight time | 2h 29m |
| Altitude | 38000 |
| Route | OLGAT DCT ABADI DCT CRAYE DCT GISAM DCT SIPAL DCT UNIPA DCT GORPA DCT LAMSI DCT ARMUT DCT KENIG DCT ABGUS DCT DIRBO/N0355F230 T902 RARUP RARUP3P |
| Aircraft | A20N/M-SDE2E3FGHIRWXY/LB1 |
Departure
| Time | 2026-05-04 10:22 |
|---|---|
| Airport | Corfu Ioannis Kapodistrias International Airport (LGKR) |
Arrival
| Time | 2026-05-04 12:51 |
|---|---|
| Airport | Hamburg Helmut Schmidt Airport (EDDH) |
| Time | Latitude | Longitude | Altitude | Speed | Heading |
|---|---|---|---|---|---|
| 2026-05-04 09:55 | 39.60667 | 19.91357 | 18 ft | 0 kts | 78° |
| 2026-05-04 10:16 | 39.60659 | 19.91299 | 18 ft | 4 kts | 79° |
| 2026-05-04 10:16 | 39.60654 | 19.91272 | 19 ft | 4 kts | 72° |
| 2026-05-04 10:16 | 39.60642 | 19.91242 | 21 ft | 4 kts | 33° |
| 2026-05-04 10:16 | 39.60621 | 19.91237 | 20 ft | 4 kts | 348° |
| 2026-05-04 10:17 | 39.60613 | 19.91239 | 19 ft | 1 kts | 348° |
| 2026-05-04 10:19 | 39.60616 | 19.91239 | 19 ft | 2 kts | 348° |
| 2026-05-04 10:20 | 39.60669 | 19.91225 | 19 ft | 14 kts | 348° |
| 2026-05-04 10:20 | 39.60787 | 19.91193 | 20 ft | 20 kts | 348° |
| 2026-05-04 10:20 | 39.60930 | 19.91155 | 18 ft | 22 kts | 348° |
| 2026-05-04 10:20 | 39.61085 | 19.91114 | 21 ft | 21 kts | 348° |
| 2026-05-04 10:21 | 39.61200 | 19.91072 | 19 ft | 15 kts | 318° |
| 2026-05-04 10:21 | 39.61234 | 19.90979 | 22 ft | 9 kts | 274° |
| 2026-05-04 10:21 | 39.61181 | 19.90958 | 21 ft | 11 kts | 167° |
| 2026-05-04 10:21 | 39.61002 | 19.91005 | 20 ft | 54 kts | 169° |
| 2026-05-04 10:22 | 39.59456 | 19.91406 | 112 ft | 155 kts | 167° |
| 2026-05-04 10:22 | 39.58421 | 19.91682 | 726 ft | 151 kts | 161° |
| 2026-05-04 10:22 | 39.57626 | 19.92550 | 1262 ft | 156 kts | 116° |
| 2026-05-04 10:23 | 39.57470 | 19.93927 | 1801 ft | 159 kts | 75° |
| 2026-05-04 10:23 | 39.58048 | 19.95185 | 2204 ft | 172 kts | 37° |
| 2026-05-04 10:25 | 39.61287 | 19.85959 | 6555 ft | 257 kts | 303° |
| 2026-05-04 10:25 | 39.62394 | 19.84113 | 7306 ft | 262 kts | 316° |
| 2026-05-04 10:25 | 39.63705 | 19.82431 | 8103 ft | 266 kts | 319° |
| 2026-05-04 10:25 | 39.65035 | 19.80798 | 9125 ft | 267 kts | 319° |
| 2026-05-04 10:26 | 39.66374 | 19.79112 | 10078 ft | 270 kts | 319° |
| 2026-05-04 10:26 | 39.67730 | 19.77354 | 10720 ft | 285 kts | 318° |
| 2026-05-04 10:26 | 39.69172 | 19.75447 | 11060 ft | 307 kts | 317° |
| 2026-05-04 10:26 | 39.70707 | 19.73386 | 11530 ft | 323 kts | 317° |
| 2026-05-04 10:27 | 39.72263 | 19.71273 | 12460 ft | 324 kts | 317° |
| 2026-05-04 10:27 | 39.73825 | 19.69150 | 13393 ft | 325 kts | 318° |
| 2026-05-04 10:27 | 39.75397 | 19.67020 | 14227 ft | 328 kts | 318° |
| 2026-05-04 10:27 | 39.76984 | 19.64875 | 14958 ft | 331 kts | 318° |
| 2026-05-04 10:28 | 39.78581 | 19.62714 | 15738 ft | 332 kts | 318° |
| 2026-05-04 10:28 | 39.80187 | 19.60541 | 16476 ft | 335 kts | 318° |
| 2026-05-04 10:28 | 39.81805 | 19.58350 | 17205 ft | 338 kts | 318° |
| 2026-05-04 10:28 | 39.83441 | 19.56134 | 17929 ft | 340 kts | 318° |
| 2026-05-04 10:29 | 39.85084 | 19.53906 | 18608 ft | 343 kts | 318° |
| 2026-05-04 10:29 | 39.86745 | 19.51652 | 19228 ft | 346 kts | 318° |
| 2026-05-04 10:29 | 39.88415 | 19.49385 | 19850 ft | 348 kts | 318° |
| 2026-05-04 10:29 | 39.90074 | 19.47130 | 20447 ft | 351 kts | 318° |
| 2026-05-04 10:30 | 39.91767 | 19.44828 | 21053 ft | 353 kts | 318° |
| 2026-05-04 10:30 | 39.93472 | 19.42507 | 21640 ft | 356 kts | 318° |
| 2026-05-04 10:30 | 39.95196 | 19.40160 | 22235 ft | 359 kts | 318° |
| 2026-05-04 10:30 | 39.96927 | 19.37800 | 22816 ft | 362 kts | 318° |
| 2026-05-04 10:31 | 39.98673 | 19.35418 | 23400 ft | 364 kts | 318° |
| 2026-05-04 10:31 | 40.00431 | 19.33017 | 23922 ft | 367 kts | 318° |
| 2026-05-04 10:32 | 40.11204 | 19.18272 | 26700 ft | 381 kts | 318° |
| 2026-05-04 10:33 | 40.13038 | 19.15755 | 27125 ft | 383 kts | 318° |
| 2026-05-04 10:33 | 40.14880 | 19.13224 | 27531 ft | 386 kts | 317° |
| 2026-05-04 10:33 | 40.16736 | 19.10673 | 27945 ft | 388 kts | 317° |
| 2026-05-04 10:33 | 40.18602 | 19.08104 | 28333 ft | 390 kts | 317° |
| 2026-05-04 10:34 | 40.20475 | 19.05524 | 28710 ft | 392 kts | 317° |
| 2026-05-04 10:34 | 40.22374 | 19.02948 | 29076 ft | 394 kts | 320° |
| 2026-05-04 10:34 | 40.24440 | 19.00602 | 29414 ft | 393 kts | 325° |
| 2026-05-04 10:34 | 40.26686 | 18.98555 | 29765 ft | 394 kts | 330° |
| 2026-05-04 10:35 | 40.29049 | 18.96828 | 30096 ft | 395 kts | 334° |
| 2026-05-04 10:35 | 40.31484 | 18.95143 | 30407 ft | 397 kts | 334° |
| 2026-05-04 10:35 | 40.33927 | 18.93435 | 30703 ft | 399 kts | 333° |
| 2026-05-04 10:35 | 40.36382 | 18.91715 | 31007 ft | 401 kts | 333° |
| 2026-05-04 10:36 | 40.38849 | 18.89987 | 31308 ft | 402 kts | 333° |
| 2026-05-04 10:36 | 40.41321 | 18.88255 | 31682 ft | 402 kts | 333° |
| 2026-05-04 10:36 | 40.43790 | 18.86526 | 32081 ft | 401 kts | 333° |
| 2026-05-04 10:36 | 40.46251 | 18.84802 | 32471 ft | 400 kts | 333° |
| 2026-05-04 10:37 | 40.48701 | 18.83084 | 32858 ft | 399 kts | 333° |
| 2026-05-04 10:37 | 40.51148 | 18.81367 | 33224 ft | 398 kts | 333° |
| 2026-05-04 10:37 | 40.53593 | 18.79651 | 33606 ft | 397 kts | 333° |
| 2026-05-04 10:37 | 40.56028 | 18.77939 | 33964 ft | 396 kts | 333° |
| 2026-05-04 10:39 | 40.70561 | 18.67693 | 35505 ft | 396 kts | 333° |
| 2026-05-04 10:39 | 40.72995 | 18.65972 | 35735 ft | 396 kts | 333° |
| 2026-05-04 10:39 | 40.75426 | 18.64252 | 35963 ft | 396 kts | 333° |
| 2026-05-04 10:40 | 40.77863 | 18.62555 | 36181 ft | 396 kts | 333° |
| 2026-05-04 10:40 | 40.80316 | 18.60897 | 36388 ft | 396 kts | 334° |
| 2026-05-04 10:40 | 40.82776 | 18.59244 | 36596 ft | 396 kts | 334° |
| 2026-05-04 10:40 | 40.85233 | 18.57589 | 36803 ft | 396 kts | 334° |
| 2026-05-04 10:41 | 40.87688 | 18.55928 | 37004 ft | 396 kts | 334° |
| 2026-05-04 10:41 | 40.90136 | 18.54266 | 37194 ft | 396 kts | 334° |
| 2026-05-04 10:41 | 40.92593 | 18.52596 | 37374 ft | 396 kts | 334° |
| 2026-05-04 10:41 | 40.95047 | 18.50924 | 37562 ft | 396 kts | 334° |
| 2026-05-04 10:42 | 40.97505 | 18.49248 | 37741 ft | 396 kts | 334° |
| 2026-05-04 10:42 | 40.99954 | 18.47578 | 37911 ft | 396 kts | 334° |
| 2026-05-04 10:42 | 41.02403 | 18.45905 | 38079 ft | 396 kts | 334° |
| 2026-05-04 10:43 | 41.07303 | 18.42554 | 38170 ft | 395 kts | 334° |
| 2026-05-04 10:45 | 41.26822 | 18.29150 | 38171 ft | 395 kts | 334° |
| 2026-05-04 10:45 | 41.31710 | 18.25779 | 38164 ft | 395 kts | 333° |
| 2026-05-04 10:46 | 41.36590 | 18.22409 | 38162 ft | 395 kts | 334° |
| 2026-05-04 10:46 | 41.41466 | 18.19035 | 38162 ft | 395 kts | 333° |
| 2026-05-04 10:47 | 41.46342 | 18.15656 | 38162 ft | 395 kts | 334° |
| 2026-05-04 10:47 | 41.51157 | 18.12134 | 38158 ft | 395 kts | 329° |
| 2026-05-04 10:49 | 41.69503 | 17.95865 | 38164 ft | 397 kts | 328° |
| 2026-05-04 10:50 | 41.74104 | 17.91764 | 38163 ft | 398 kts | 328° |
| 2026-05-04 10:52 | 41.92679 | 17.75567 | 38173 ft | 399 kts | 335° |
| 2026-05-04 10:52 | 41.97777 | 17.72635 | 38168 ft | 399 kts | 338° |
| 2026-05-04 10:54 | 42.18380 | 17.61197 | 38176 ft | 401 kts | 338° |
| 2026-05-04 10:56 | 42.39083 | 17.49653 | 38175 ft | 403 kts | 338° |
| 2026-05-04 10:57 | 42.44222 | 17.46774 | 38176 ft | 403 kts | 338° |
| 2026-05-04 10:57 | 42.49406 | 17.43865 | 38173 ft | 403 kts | 338° |
| 2026-05-04 10:58 | 42.54588 | 17.40952 | 38172 ft | 403 kts | 338° |
| 2026-05-04 10:58 | 42.59769 | 17.38034 | 38167 ft | 403 kts | 338° |
| 2026-05-04 10:59 | 42.64951 | 17.35111 | 38165 ft | 403 kts | 338° |
| 2026-05-04 10:59 | 42.70127 | 17.32186 | 38166 ft | 403 kts | 338° |
| 2026-05-04 11:00 | 42.75303 | 17.29255 | 38163 ft | 403 kts | 338° |
| 2026-05-04 11:02 | 42.95978 | 17.17496 | 38167 ft | 403 kts | 338° |
| 2026-05-04 11:05 | 43.34602 | 16.93690 | 38152 ft | 409 kts | 335° |
| 2026-05-04 11:06 | 43.38878 | 16.90882 | 38152 ft | 409 kts | 335° |
| 2026-05-04 11:06 | 43.44016 | 16.87503 | 38143 ft | 409 kts | 335° |
| 2026-05-04 11:10 | 43.80002 | 16.63658 | 38139 ft | 413 kts | 335° |
| 2026-05-04 11:12 | 44.00676 | 16.49812 | 38126 ft | 413 kts | 335° |
| 2026-05-04 11:12 | 44.05824 | 16.46409 | 38118 ft | 413 kts | 336° |
| 2026-05-04 11:13 | 44.11067 | 16.43154 | 38123 ft | 413 kts | 336° |
| 2026-05-04 11:13 | 44.16323 | 16.39878 | 38124 ft | 414 kts | 336° |
| 2026-05-04 11:14 | 44.21584 | 16.36567 | 38130 ft | 415 kts | 336° |
| 2026-05-04 11:16 | 44.42608 | 16.23250 | 38122 ft | 416 kts | 336° |
| 2026-05-04 11:16 | 44.47883 | 16.19891 | 38129 ft | 416 kts | 336° |
| 2026-05-04 11:17 | 44.53156 | 16.16528 | 38111 ft | 416 kts | 336° |
| 2026-05-04 11:19 | 44.74257 | 16.03001 | 38104 ft | 417 kts | 336° |
| 2026-05-04 11:19 | 44.79535 | 15.99600 | 38093 ft | 417 kts | 335° |
| 2026-05-04 11:20 | 44.84779 | 15.96215 | 38096 ft | 417 kts | 335° |
| 2026-05-04 11:20 | 44.90057 | 15.92800 | 38092 ft | 418 kts | 335° |
| 2026-05-04 11:22 | 45.11183 | 15.79066 | 38090 ft | 419 kts | 335° |
| 2026-05-04 11:23 | 45.16483 | 15.75601 | 38090 ft | 419 kts | 335° |
| 2026-05-04 11:25 | 45.35040 | 15.63418 | 38085 ft | 420 kts | 335° |
| 2026-05-04 11:25 | 45.40344 | 15.59919 | 38084 ft | 420 kts | 335° |
| 2026-05-04 11:27 | 45.64198 | 15.44093 | 38079 ft | 421 kts | 335° |
| 2026-05-04 11:28 | 45.69513 | 15.40547 | 38074 ft | 421 kts | 335° |
| 2026-05-04 11:28 | 45.74821 | 15.36999 | 38073 ft | 421 kts | 335° |
| 2026-05-04 11:29 | 45.80161 | 15.33534 | 38070 ft | 421 kts | 337° |
| 2026-05-04 11:29 | 45.85613 | 15.30436 | 38070 ft | 422 kts | 338° |
| 2026-05-04 11:33 | 46.24087 | 15.07983 | 38070 ft | 428 kts | 335° |
| 2026-05-04 11:33 | 46.29611 | 15.04718 | 38066 ft | 429 kts | 335° |
| 2026-05-04 11:34 | 46.35146 | 15.01439 | 38067 ft | 430 kts | 335° |
| 2026-05-04 11:34 | 46.40665 | 14.98164 | 38064 ft | 431 kts | 335° |
| 2026-05-04 11:35 | 46.46227 | 14.94853 | 38071 ft | 432 kts | 335° |
| 2026-05-04 11:35 | 46.51791 | 14.91537 | 38063 ft | 432 kts | 335° |
| 2026-05-04 11:36 | 46.57342 | 14.88220 | 38063 ft | 431 kts | 335° |
| 2026-05-04 11:36 | 46.62886 | 14.84899 | 38059 ft | 431 kts | 335° |
| 2026-05-04 11:37 | 46.68435 | 14.81568 | 38056 ft | 431 kts | 335° |
| 2026-05-04 11:37 | 46.73992 | 14.78226 | 38058 ft | 432 kts | 335° |
| 2026-05-04 11:38 | 46.79534 | 14.74887 | 38054 ft | 431 kts | 335° |
| 2026-05-04 11:38 | 46.85036 | 14.71562 | 38040 ft | 430 kts | 335° |
| 2026-05-04 11:39 | 46.90548 | 14.68223 | 38034 ft | 429 kts | 335° |
| 2026-05-04 11:41 | 47.09875 | 14.56461 | 38028 ft | 430 kts | 335° |
| 2026-05-04 11:41 | 47.15379 | 14.53095 | 38031 ft | 430 kts | 335° |
| 2026-05-04 11:42 | 47.20946 | 14.49681 | 38030 ft | 431 kts | 335° |
| 2026-05-04 11:42 | 47.26481 | 14.46281 | 38038 ft | 432 kts | 335° |
| 2026-05-04 11:43 | 47.32003 | 14.42880 | 38019 ft | 433 kts | 335° |
| 2026-05-04 11:43 | 47.37564 | 14.39447 | 38034 ft | 434 kts | 335° |
| 2026-05-04 11:44 | 47.43143 | 14.35996 | 38028 ft | 435 kts | 335° |
| 2026-05-04 11:44 | 47.48745 | 14.32521 | 38017 ft | 436 kts | 335° |
| 2026-05-04 11:45 | 47.54335 | 14.29047 | 38025 ft | 436 kts | 334° |
| 2026-05-04 11:45 | 47.59893 | 14.25585 | 38005 ft | 435 kts | 334° |
| 2026-05-04 11:46 | 47.65473 | 14.22101 | 37998 ft | 435 kts | 334° |
| 2026-05-04 11:46 | 47.71057 | 14.18604 | 38002 ft | 436 kts | 334° |
| 2026-05-04 11:47 | 47.76645 | 14.15100 | 37994 ft | 436 kts | 334° |
| 2026-05-04 11:47 | 47.82229 | 14.11588 | 37988 ft | 435 kts | 334° |
| 2026-05-04 11:48 | 47.87795 | 14.08084 | 37997 ft | 433 kts | 334° |
| 2026-05-04 11:48 | 47.93375 | 14.04558 | 37996 ft | 436 kts | 334° |
| 2026-05-04 11:49 | 47.98959 | 14.01021 | 37992 ft | 436 kts | 334° |
| 2026-05-04 11:49 | 48.04553 | 13.97470 | 37994 ft | 436 kts | 334° |
| 2026-05-04 11:50 | 48.10113 | 13.93933 | 37992 ft | 437 kts | 334° |
| 2026-05-04 11:50 | 48.15703 | 13.90368 | 37991 ft | 437 kts | 334° |
| 2026-05-04 11:51 | 48.21301 | 13.86789 | 37992 ft | 437 kts | 334° |
| 2026-05-04 11:51 | 48.26896 | 13.83204 | 37992 ft | 437 kts | 334° |
| 2026-05-04 11:52 | 48.32498 | 13.79606 | 37995 ft | 438 kts | 334° |
| 2026-05-04 11:52 | 48.38102 | 13.75999 | 37998 ft | 438 kts | 334° |
| 2026-05-04 11:53 | 48.43704 | 13.72384 | 37996 ft | 439 kts | 333° |
| 2026-05-04 11:53 | 48.49315 | 13.68753 | 38001 ft | 439 kts | 333° |
| 2026-05-04 11:55 | 48.70012 | 13.52918 | 37992 ft | 432 kts | 319° |
| 2026-05-04 11:56 | 48.74781 | 13.47449 | 37993 ft | 432 kts | 320° |
| 2026-05-04 11:56 | 48.79585 | 13.41947 | 37997 ft | 432 kts | 319° |
| 2026-05-04 11:57 | 48.84377 | 13.36417 | 37992 ft | 432 kts | 319° |
| 2026-05-04 11:57 | 48.89161 | 13.30873 | 37995 ft | 432 kts | 319° |
| 2026-05-04 11:58 | 48.93941 | 13.25321 | 37996 ft | 432 kts | 319° |
| 2026-05-04 11:58 | 48.98725 | 13.19749 | 37992 ft | 432 kts | 319° |
| 2026-05-04 11:59 | 49.03497 | 13.14178 | 37989 ft | 432 kts | 319° |
| 2026-05-04 11:59 | 49.08234 | 13.08635 | 37988 ft | 432 kts | 319° |
| 2026-05-04 12:00 | 49.13008 | 13.03035 | 37989 ft | 433 kts | 319° |
| 2026-05-04 12:00 | 49.17786 | 12.97415 | 37981 ft | 433 kts | 319° |
| 2026-05-04 12:01 | 49.22559 | 12.91787 | 37993 ft | 433 kts | 319° |
| 2026-05-04 12:02 | 49.39283 | 12.71957 | 38000 ft | 435 kts | 319° |
| 2026-05-04 12:03 | 49.44063 | 12.66257 | 37996 ft | 435 kts | 319° |
| 2026-05-04 12:03 | 49.48847 | 12.60537 | 38003 ft | 436 kts | 319° |
| 2026-05-04 12:04 | 49.53635 | 12.54799 | 38002 ft | 436 kts | 319° |
| 2026-05-04 12:04 | 49.58391 | 12.49085 | 38004 ft | 436 kts | 319° |
| 2026-05-04 12:05 | 49.63168 | 12.43331 | 38010 ft | 436 kts | 318° |
| 2026-05-04 12:05 | 49.67951 | 12.37555 | 38021 ft | 436 kts | 319° |
| 2026-05-04 12:06 | 49.73091 | 12.32489 | 38032 ft | 441 kts | 329° |
| 2026-05-04 12:06 | 49.78794 | 12.28877 | 38035 ft | 445 kts | 338° |
| 2026-05-04 12:07 | 49.84639 | 12.25726 | 38031 ft | 445 kts | 337° |
| 2026-05-04 12:07 | 49.90482 | 12.22557 | 38024 ft | 444 kts | 337° |
| 2026-05-04 12:08 | 49.96286 | 12.19419 | 38015 ft | 444 kts | 337° |
| 2026-05-04 12:08 | 50.02116 | 12.16264 | 38002 ft | 444 kts | 337° |
| 2026-05-04 12:09 | 50.07946 | 12.13100 | 38009 ft | 443 kts | 337° |
| 2026-05-04 12:09 | 50.13776 | 12.09929 | 38011 ft | 443 kts | 336° |
| 2026-05-04 12:10 | 50.19593 | 12.06757 | 38025 ft | 443 kts | 336° |
| 2026-05-04 12:10 | 50.25407 | 12.03578 | 38013 ft | 443 kts | 336° |
| 2026-05-04 12:11 | 50.31224 | 12.00389 | 38015 ft | 443 kts | 336° |
| 2026-05-04 12:11 | 50.37034 | 11.97196 | 38018 ft | 442 kts | 336° |
| 2026-05-04 12:12 | 50.42843 | 11.93995 | 38012 ft | 443 kts | 336° |
| 2026-05-04 12:12 | 50.48660 | 11.90781 | 38005 ft | 443 kts | 336° |
| 2026-05-04 12:14 | 50.71842 | 11.77887 | 37990 ft | 445 kts | 336° |
| 2026-05-04 12:15 | 50.77682 | 11.74618 | 37988 ft | 445 kts | 336° |
| 2026-05-04 12:15 | 50.83494 | 11.71356 | 37987 ft | 445 kts | 336° |
| 2026-05-04 12:16 | 50.89335 | 11.68068 | 37991 ft | 446 kts | 335° |
| 2026-05-04 12:16 | 50.95176 | 11.64772 | 37984 ft | 446 kts | 335° |
| 2026-05-04 12:17 | 51.01023 | 11.61464 | 37987 ft | 446 kts | 335° |
| 2026-05-04 12:17 | 51.06878 | 11.58143 | 37992 ft | 447 kts | 335° |
| 2026-05-04 12:18 | 51.12739 | 11.54809 | 37994 ft | 447 kts | 335° |
| 2026-05-04 12:18 | 51.18594 | 11.51469 | 38002 ft | 447 kts | 335° |
| 2026-05-04 12:19 | 51.24445 | 11.48123 | 37993 ft | 447 kts | 335° |
| 2026-05-04 12:19 | 51.30255 | 11.44791 | 37988 ft | 447 kts | 335° |
| 2026-05-04 12:20 | 51.36104 | 11.41428 | 37990 ft | 447 kts | 335° |
| 2026-05-04 12:20 | 51.41955 | 11.38054 | 37995 ft | 446 kts | 335° |
| 2026-05-04 12:21 | 51.47805 | 11.34671 | 37979 ft | 446 kts | 335° |
| 2026-05-04 12:21 | 51.53653 | 11.31282 | 37986 ft | 446 kts | 335° |
| 2026-05-04 12:22 | 51.59480 | 11.27896 | 37974 ft | 445 kts | 334° |
| 2026-05-04 12:22 | 51.65062 | 11.23789 | 37979 ft | 438 kts | 326° |
| 2026-05-04 12:23 | 51.70402 | 11.19242 | 37977 ft | 438 kts | 327° |
| 2026-05-04 12:23 | 51.75806 | 11.14672 | 37977 ft | 438 kts | 327° |
| 2026-05-04 12:24 | 51.81190 | 11.10083 | 37978 ft | 438 kts | 327° |
| 2026-05-04 12:24 | 51.86860 | 11.06266 | 37973 ft | 445 kts | 337° |
| 2026-05-04 12:25 | 51.92941 | 11.04069 | 37969 ft | 452 kts | 347° |
| 2026-05-04 12:25 | 51.99153 | 11.02745 | 37964 ft | 452 kts | 347° |
| 2026-05-04 12:26 | 52.05344 | 11.01389 | 37960 ft | 452 kts | 347° |
| 2026-05-04 12:26 | 52.11583 | 11.00042 | 37661 ft | 454 kts | 347° |
| 2026-05-04 12:27 | 52.14718 | 10.99368 | 37078 ft | 456 kts | 347° |
| 2026-05-04 12:27 | 52.17879 | 10.98688 | 36271 ft | 460 kts | 347° |
| 2026-05-04 12:27 | 52.21072 | 10.97999 | 35324 ft | 465 kts | 347° |
| 2026-05-04 12:27 | 52.24302 | 10.97302 | 34474 ft | 469 kts | 346° |
| 2026-05-04 12:28 | 52.27534 | 10.96608 | 33648 ft | 471 kts | 346° |
| 2026-05-04 12:28 | 52.30782 | 10.95909 | 32904 ft | 469 kts | 346° |
| 2026-05-04 12:28 | 52.34013 | 10.95211 | 32095 ft | 469 kts | 346° |
| 2026-05-04 12:28 | 52.37250 | 10.94510 | 31292 ft | 469 kts | 347° |
| 2026-05-04 12:29 | 52.40465 | 10.93813 | 30739 ft | 463 kts | 347° |
| 2026-05-04 12:29 | 52.43647 | 10.93124 | 30161 ft | 459 kts | 347° |
| 2026-05-04 12:29 | 52.46809 | 10.92437 | 29529 ft | 455 kts | 347° |
| 2026-05-04 12:29 | 52.49890 | 10.91766 | 28958 ft | 449 kts | 347° |
| 2026-05-04 12:30 | 52.53016 | 10.91084 | 28380 ft | 444 kts | 347° |
| 2026-05-04 12:30 | 52.56019 | 10.90427 | 27829 ft | 439 kts | 347° |
| 2026-05-04 12:30 | 52.59028 | 10.89767 | 27269 ft | 434 kts | 347° |
| 2026-05-04 12:30 | 52.62007 | 10.89112 | 26719 ft | 429 kts | 346° |
| 2026-05-04 12:31 | 52.64951 | 10.88464 | 26172 ft | 425 kts | 346° |
| 2026-05-04 12:31 | 52.67863 | 10.87822 | 25636 ft | 421 kts | 346° |
| 2026-05-04 12:31 | 52.70769 | 10.87179 | 25087 ft | 419 kts | 346° |
| 2026-05-04 12:31 | 52.73662 | 10.86537 | 24485 ft | 419 kts | 346° |
| 2026-05-04 12:32 | 52.76546 | 10.85900 | 24006 ft | 415 kts | 346° |
| 2026-05-04 12:32 | 52.82234 | 10.84641 | 22880 ft | 408 kts | 347° |
| 2026-05-04 12:32 | 52.85030 | 10.84031 | 22343 ft | 403 kts | 347° |
| 2026-05-04 12:33 | 52.87803 | 10.83464 | 21804 ft | 399 kts | 347° |
| 2026-05-04 12:33 | 52.90547 | 10.82916 | 21268 ft | 395 kts | 347° |
| 2026-05-04 12:33 | 52.93264 | 10.82371 | 20746 ft | 392 kts | 347° |
| 2026-05-04 12:33 | 52.95961 | 10.81826 | 20218 ft | 389 kts | 347° |
| 2026-05-04 12:34 | 52.98639 | 10.81281 | 19691 ft | 386 kts | 347° |
| 2026-05-04 12:34 | 53.01266 | 10.80744 | 19165 ft | 384 kts | 348° |
| 2026-05-04 12:34 | 53.03910 | 10.80201 | 18650 ft | 382 kts | 348° |
| 2026-05-04 12:34 | 53.06548 | 10.79659 | 18085 ft | 381 kts | 348° |
| 2026-05-04 12:35 | 53.09170 | 10.79122 | 17549 ft | 378 kts | 348° |
| 2026-05-04 12:35 | 53.11767 | 10.78590 | 17020 ft | 374 kts | 348° |
| 2026-05-04 12:35 | 53.14345 | 10.78062 | 16503 ft | 371 kts | 348° |
| 2026-05-04 12:35 | 53.16901 | 10.77536 | 15982 ft | 368 kts | 348° |
| 2026-05-04 12:36 | 53.19428 | 10.77015 | 15467 ft | 365 kts | 348° |
| 2026-05-04 12:36 | 53.21944 | 10.76495 | 14953 ft | 363 kts | 348° |
| 2026-05-04 12:36 | 53.24439 | 10.75979 | 14447 ft | 361 kts | 348° |
| 2026-05-04 12:36 | 53.26927 | 10.75464 | 13941 ft | 358 kts | 348° |
| 2026-05-04 12:37 | 53.29396 | 10.74953 | 13407 ft | 356 kts | 349° |
| 2026-05-04 12:37 | 53.31839 | 10.74447 | 12906 ft | 352 kts | 349° |
| 2026-05-04 12:37 | 53.34257 | 10.73946 | 12347 ft | 349 kts | 349° |
| 2026-05-04 12:37 | 53.36695 | 10.73436 | 11529 ft | 356 kts | 349° |
| 2026-05-04 12:38 | 53.39136 | 10.72928 | 11140 ft | 349 kts | 349° |
| 2026-05-04 12:38 | 53.41489 | 10.72444 | 10968 ft | 331 kts | 349° |
| 2026-05-04 12:38 | 53.43708 | 10.71991 | 10775 ft | 311 kts | 349° |
| 2026-05-04 12:38 | 53.45798 | 10.71561 | 10615 ft | 293 kts | 349° |
| 2026-05-04 12:39 | 53.47757 | 10.71155 | 10473 ft | 275 kts | 348° |
| 2026-05-04 12:39 | 53.49614 | 10.70767 | 10161 ft | 266 kts | 348° |
| 2026-05-04 12:39 | 53.51454 | 10.70375 | 9620 ft | 266 kts | 348° |
| 2026-05-04 12:39 | 53.53285 | 10.69985 | 9082 ft | 265 kts | 348° |
| 2026-05-04 12:40 | 53.55093 | 10.69603 | 8725 ft | 260 kts | 349° |
| 2026-05-04 12:40 | 53.56888 | 10.69224 | 8485 ft | 264 kts | 349° |
| 2026-05-04 12:40 | 53.58698 | 10.68844 | 8236 ft | 261 kts | 349° |
| 2026-05-04 12:40 | 53.60480 | 10.68472 | 7981 ft | 256 kts | 349° |
| 2026-05-04 12:41 | 53.62265 | 10.68098 | 7735 ft | 259 kts | 348° |
| 2026-05-04 12:41 | 53.64011 | 10.67543 | 7484 ft | 252 kts | 338° |
| 2026-05-04 12:41 | 53.65583 | 10.66324 | 7236 ft | 248 kts | 325° |
| 2026-05-04 12:41 | 53.67050 | 10.64807 | 6996 ft | 246 kts | 325° |
| 2026-05-04 12:42 | 53.68512 | 10.63322 | 6765 ft | 245 kts | 326° |
| 2026-05-04 12:42 | 53.69973 | 10.61851 | 6520 ft | 243 kts | 326° |
| 2026-05-04 12:42 | 53.70932 | 10.60888 | 6407 ft | 242 kts | 326° |
| 2026-05-04 12:42 | 53.72306 | 10.59238 | 6222 ft | 240 kts | 309° |
| 2026-05-04 12:43 | 53.73305 | 10.56998 | 6050 ft | 238 kts | 303° |
| 2026-05-04 12:43 | 53.74264 | 10.54731 | 5869 ft | 236 kts | 303° |
| 2026-05-04 12:43 | 53.75216 | 10.52468 | 5684 ft | 236 kts | 303° |
| 2026-05-04 12:43 | 53.76171 | 10.50204 | 5504 ft | 236 kts | 303° |
| 2026-05-04 12:44 | 53.77126 | 10.47952 | 5332 ft | 235 kts | 303° |
| 2026-05-04 12:44 | 53.78080 | 10.45706 | 5145 ft | 232 kts | 303° |
| 2026-05-04 12:44 | 53.79011 | 10.43522 | 4975 ft | 226 kts | 303° |
| 2026-05-04 12:44 | 53.79913 | 10.41408 | 4832 ft | 218 kts | 303° |
| 2026-05-04 12:45 | 53.80733 | 10.39309 | 4681 ft | 208 kts | 291° |
| 2026-05-04 12:45 | 53.81010 | 10.37002 | 4548 ft | 197 kts | 267° |
| 2026-05-04 12:45 | 53.80671 | 10.34768 | 4449 ft | 201 kts | 244° |
| 2026-05-04 12:45 | 53.79825 | 10.32862 | 4407 ft | 204 kts | 231° |
| 2026-05-04 12:46 | 53.78899 | 10.31063 | 4346 ft | 201 kts | 231° |
| 2026-05-04 12:46 | 53.77997 | 10.29253 | 4298 ft | 203 kts | 232° |
| 2026-05-04 12:46 | 53.77104 | 10.27433 | 4194 ft | 198 kts | 232° |
| 2026-05-04 12:46 | 53.76242 | 10.25675 | 3952 ft | 196 kts | 233° |
| 2026-05-04 12:47 | 53.75374 | 10.23902 | 3692 ft | 196 kts | 232° |
| 2026-05-04 12:47 | 53.74508 | 10.22134 | 3430 ft | 195 kts | 232° |
| 2026-05-04 12:47 | 53.73641 | 10.20369 | 3174 ft | 195 kts | 232° |
| 2026-05-04 12:47 | 53.72778 | 10.18611 | 2904 ft | 194 kts | 233° |
| 2026-05-04 12:48 | 53.71920 | 10.16866 | 2687 ft | 189 kts | 233° |
| 2026-05-04 12:48 | 53.71099 | 10.15195 | 2406 ft | 180 kts | 233° |
| 2026-05-04 12:48 | 53.70335 | 10.13642 | 2161 ft | 164 kts | 233° |
| 2026-05-04 12:48 | 53.69630 | 10.12202 | 1941 ft | 156 kts | 233° |
| 2026-05-04 12:49 | 53.68952 | 10.10804 | 1734 ft | 150 kts | 234° |
| 2026-05-04 12:49 | 53.68316 | 10.09503 | 1575 ft | 139 kts | 234° |
| 2026-05-04 12:49 | 53.67708 | 10.08258 | 1334 ft | 137 kts | 234° |
| 2026-05-04 12:49 | 53.67099 | 10.07060 | 1163 ft | 135 kts | 233° |
| 2026-05-04 12:50 | 53.66488 | 10.05823 | 981 ft | 138 kts | 236° |
| 2026-05-04 12:50 | 53.65883 | 10.04581 | 773 ft | 137 kts | 234° |
| 2026-05-04 12:50 | 53.65277 | 10.03343 | 577 ft | 137 kts | 234° |
| 2026-05-04 12:50 | 53.64671 | 10.02110 | 387 ft | 137 kts | 233° |
| 2026-05-04 12:51 | 53.64059 | 10.00886 | 232 ft | 135 kts | 234° |
| 2026-05-04 12:51 | 53.63461 | 9.99682 | 66 ft | 131 kts | 235° |
| 2026-05-04 12:51 | 53.62939 | 9.98611 | 44 ft | 97 kts | 229° |
| 2026-05-04 12:51 | 53.62640 | 9.98018 | 41 ft | 36 kts | 230° |
| 2026-05-04 12:52 | 53.62516 | 9.97795 | 40 ft | 17 kts | 200° |
| 2026-05-04 12:52 | 53.62428 | 9.97889 | 45 ft | 16 kts | 95° |
| 2026-05-04 12:52 | 53.62462 | 9.98080 | 46 ft | 19 kts | 60° |
| 2026-05-04 12:52 | 53.62549 | 9.98263 | 46 ft | 21 kts | 51° |
| 2026-05-04 12:53 | 53.62649 | 9.98465 | 46 ft | 24 kts | 50° |
| 2026-05-04 12:53 | 53.62750 | 9.98671 | 46 ft | 19 kts | 50° |
| 2026-05-04 12:53 | 53.62843 | 9.98858 | 44 ft | 22 kts | 50° |
| 2026-05-04 12:53 | 53.62947 | 9.99069 | 46 ft | 24 kts | 50° |
| 2026-05-04 12:54 | 53.63047 | 9.99283 | 46 ft | 22 kts | 54° |
| 2026-05-04 12:54 | 53.63134 | 9.99487 | 46 ft | 21 kts | 54° |
| 2026-05-04 12:54 | 53.63209 | 9.99646 | 48 ft | 13 kts | 50° |
| 2026-05-04 12:54 | 53.63255 | 9.99732 | 48 ft | 9 kts | 43° |
| 2026-05-04 12:55 | 53.63301 | 9.99809 | 48 ft | 10 kts | 50° |
| 2026-05-04 12:55 | 53.63315 | 9.99856 | 48 ft | 2 kts | 94° |
| 2026-05-04 12:55 | 53.63293 | 9.99892 | 48 ft | 6 kts | 142° |
| 2026-05-04 12:55 | 53.63273 | 9.99920 | 48 ft | 2 kts | 140° |
| 2026-05-04 12:56 | 53.63265 | 9.99932 | 48 ft | 1 kts | 140° |
| 2026-05-04 12:56 | 53.63263 | 9.99934 | 48 ft | 0 kts | 140° |